Time;durP1;ratioP1;P1;durP2;ratioP2;P2;SDS_P1;SDS_P2;PMS_P1;PMS_P2;Temp;Humidity;BMP_temperature;BMP_pressure;BME280_temperature;BME280_humidity;BME280_pressure;Samples;Min_cycle;Max_cycle;Signal;HPM_P1;HPM_P2
2022/03/07 00:01:16;;;;;;;4.97;2.10;;;19.90;44.00;;;;;;5011755;28;20338;-59
2022/03/07 00:03:41;;;;;;;4.85;2.20;;;19.90;44.00;;;;;;5013075;28;20068;-59
2022/03/07 00:06:07;;;;;;;5.45;2.20;;;19.90;43.90;;;;;;5012390;28;20046;-58
2022/03/07 00:08:32;;;;;;;4.68;2.05;;;19.90;43.90;;;;;;5011800;28;20053;-59
2022/03/07 00:10:58;;;;;;;4.75;2.40;;;19.80;43.80;;;;;;5012456;28;20056;-58
2022/03/07 00:13:24;;;;;;;4.25;2.00;;;19.80;43.80;;;;;;5011889;28;20046;-59
2022/03/07 00:15:49;;;;;;;4.22;2.45;;;19.80;43.80;;;;;;5012508;28;20149;-59
2022/03/07 00:18:15;;;;;;;4.93;2.17;;;19.80;43.80;;;;;;5011318;28;20517;-59
2022/03/07 00:20:41;;;;;;;4.03;2.10;;;19.80;43.70;;;;;;5013275;28;20152;-59
2022/03/07 00:23:06;;;;;;;4.55;2.35;;;19.80;43.70;;;;;;5016431;28;20108;-59
2022/03/07 00:25:31;;;;;;;4.53;2.03;;;19.80;43.70;;;;;;5016456;28;20089;-58
2022/03/07 00:27:57;;;;;;;4.43;2.10;;;19.70;43.60;;;;;;5015991;28;20466;-59
2022/03/07 00:30:23;;;;;;;4.60;2.30;;;19.80;43.70;;;;;;5016389;28;20249;-58
2022/03/07 00:32:48;;;;;;;5.18;2.47;;;19.80;43.60;;;;;;5016336;28;20486;-59
2022/03/07 00:35:15;;;;;;;6.25;2.10;;;19.70;43.50;;;;;;5015391;28;20053;-58
2022/03/07 00:37:40;;;;;;;5.28;2.42;;;19.70;43.50;;;;;;5015038;28;20512;-58
2022/03/07 00:40:08;;;;;;;3.60;2.10;;;19.70;43.40;;;;;;5016218;28;20042;-58
2022/03/07 00:42:34;;;;;;;5.50;2.10;;;19.70;43.40;;;;;;5015696;28;20046;-58
2022/03/07 00:44:59;;;;;;;5.60;2.33;;;19.70;43.40;;;;;;5016363;28;20520;-58
2022/03/07 00:47:25;;;;;;;4.35;2.22;;;19.70;43.30;;;;;;5015763;28;20466;-59
2022/03/07 00:49:51;;;;;;;5.38;2.20;;;19.70;43.30;;;;;;5015230;28;20053;-58
2022/03/07 00:52:16;;;;;;;4.43;2.10;;;19.70;43.30;;;;;;5014429;28;20128;-58
2022/03/07 00:54:42;;;;;;;4.03;2.00;;;19.70;43.20;;;;;;5016171;28;20042;-59
2022/03/07 00:57:07;;;;;;;6.00;2.58;;;19.70;43.20;;;;;;5015131;28;20046;-59
2022/03/07 00:59:33;;;;;;;4.18;2.20;;;19.60;43.10;;;;;;5016173;28;20379;-59
2022/03/07 01:01:58;;;;;;;4.05;2.10;;;19.70;43.20;;;;;;5015723;28;20402;-58
2022/03/07 01:04:24;;;;;;;4.10;1.83;;;19.60;43.10;;;;;;5014831;28;20053;-59
2022/03/07 01:06:49;;;;;;;5.50;2.30;;;19.70;43.20;;;;;;5015699;28;20056;-59
2022/03/07 01:09:15;;;;;;;4.18;1.88;;;19.60;43.10;;;;;;5014948;28;20065;-59
2022/03/07 01:11:41;;;;;;;5.45;2.30;;;19.60;43.10;;;;;;5015002;28;20050;-59
2022/03/07 01:14:07;;;;;;;3.90;2.05;;;19.60;43.00;;;;;;5015501;28;20042;-59
2022/03/07 01:16:33;;;;;;;5.22;2.30;;;19.60;43.00;;;;;;5015761;28;20080;-59
2022/03/07 01:18:58;;;;;;;4.18;2.00;;;19.60;43.00;;;;;;5014736;28;20414;-59
2022/03/07 01:21:24;;;;;;;4.25;1.95;;;19.60;43.00;;;;;;5015436;28;20696;-59
2022/03/07 01:23:49;;;;;;;5.10;1.90;;;19.60;42.90;;;;;;5014731;28;20042;-59
2022/03/07 01:26:15;;;;;;;3.50;1.63;;;19.60;42.90;;;;;;5015241;28;20412;-59
2022/03/07 01:28:40;;;;;;;4.47;2.20;;;19.60;42.80;;;;;;5015416;28;20053;-61
2022/03/07 01:31:08;;;;;;;4.55;2.00;;;19.60;42.80;;;;;;5014493;28;20046;-58
2022/03/07 01:33:33;;;;;;;5.32;2.20;;;19.60;42.80;;;;;;5014849;28;20048;-58
2022/03/07 01:35:59;;;;;;;5.28;2.08;;;19.70;42.80;;;;;;5015054;28;20050;-58
2022/03/07 01:38:25;;;;;;;4.03;2.03;;;19.60;42.70;;;;;;5014393;28;20041;-59
2022/03/07 01:40:50;;;;;;;4.07;1.83;;;19.60;42.70;;;;;;5015250;28;20517;-59
2022/03/07 01:43:16;;;;;;;2.78;1.75;;;19.60;42.60;;;;;;5015014;28;20105;-59
2022/03/07 01:45:42;;;;;;;4.65;2.08;;;19.70;42.60;;;;;;5014596;28;20052;-58
2022/03/07 01:48:07;;;;;;;4.72;2.03;;;19.60;42.60;;;;;;5014708;28;20140;-59
2022/03/07 01:50:33;;;;;;;3.70;1.83;;;19.60;42.50;;;;;;5014862;28;20137;-58
2022/03/07 01:52:59;;;;;;;5.85;1.92;;;19.70;42.60;;;;;;5014459;28;20065;-58
2022/03/07 01:55:24;;;;;;;3.63;2.00;;;19.60;42.50;;;;;;5014875;28;20490;-58
2022/03/07 01:57:50;;;;;;;3.30;1.73;;;19.70;42.50;;;;;;5014933;28;20126;-58
2022/03/07 02:00:17;;;;;;;4.90;2.28;;;19.70;42.50;;;;;;5013779;28;20042;-58
2022/03/07 02:02:43;;;;;;;4.55;1.80;;;19.70;42.50;;;;;;5015014;28;20503;-58
2022/03/07 02:05:10;;;;;;;4.70;2.10;;;19.70;42.40;;;;;;5014160;28;20052;-59
2022/03/07 02:07:36;;;;;;;3.63;1.70;;;19.70;42.40;;;;;;5013814;28;20042;-59
2022/03/07 02:10:03;;;;;;;4.85;2.28;;;19.60;42.30;;;;;;5014680;28;20054;-59
2022/03/07 02:12:28;;;;;;;4.93;2.08;;;19.70;42.40;;;;;;5013550;28;20127;-59
2022/03/07 02:14:54;;;;;;;4.35;1.83;;;19.70;42.40;;;;;;5013967;28;20081;-58
2022/03/07 02:17:19;;;;;;;3.10;1.60;;;19.70;42.30;;;;;;5014423;28;20121;-59
2022/03/07 02:19:45;;;;;;;3.05;1.73;;;19.70;42.30;;;;;;5014304;28;20128;-58
2022/03/07 02:22:11;;;;;;;3.45;1.88;;;19.70;42.30;;;;;;5013224;28;20042;-58
2022/03/07 02:24:36;;;;;;;3.28;1.65;;;19.70;42.30;;;;;;5014482;28;20049;-58
2022/03/07 02:27:04;;;;;;;3.33;1.77;;;19.70;42.40;;;;;;5013549;28;20049;-59
2022/03/07 02:29:30;;;;;;;3.90;1.60;;;19.70;42.30;;;;;;5014184;28;20118;-59
2022/03/07 02:31:55;;;;;;;3.67;1.65;;;19.70;42.20;;;;;;5014539;28;20065;-59
2022/03/07 02:34:21;;;;;;;3.22;1.52;;;19.70;42.20;;;;;;5012992;28;20100;-59
2022/03/07 02:36:46;;;;;;;2.95;1.58;;;19.70;42.20;;;;;;5014474;28;20097;-59
2022/03/07 02:39:12;;;;;;;3.00;1.50;;;19.70;42.20;;;;;;5013892;28;20514;-59
2022/03/07 02:41:38;;;;;;;3.85;2.00;;;19.80;42.20;;;;;;5013539;28;20405;-59
2022/03/07 02:44:04;;;;;;;2.92;1.48;;;19.70;42.10;;;;;;5012838;28;20104;-59
2022/03/07 02:46:29;;;;;;;3.70;1.80;;;19.80;42.20;;;;;;5013797;28;20041;-58
2022/03/07 02:48:55;;;;;;;3.58;1.35;;;19.80;42.20;;;;;;5012995;28;20046;-59
2022/03/07 02:51:20;;;;;;;4.20;1.60;;;19.80;42.20;;;;;;5013715;28;20034;-59
2022/03/07 02:53:46;;;;;;;3.13;1.63;;;19.80;42.10;;;;;;5013740;28;20524;-58
2022/03/07 02:56:11;;;;;;;2.90;1.60;;;19.80;42.20;;;;;;5012788;28;20057;-58
2022/03/07 02:58:37;;;;;;;4.50;1.73;;;19.80;42.20;;;;;;5013963;28;20034;-58
2022/03/07 03:01:04;;;;;;;2.88;1.30;;;19.80;42.20;;;;;;5013076;28;20530;-58
2022/03/07 03:03:29;;;;;;;4.20;1.80;;;19.80;42.10;;;;;;5011470;28;20120;-58
2022/03/07 03:06:02;;;;;;;2.55;1.50;;;19.70;42.00;;;;;;5089944;27;20376;-58
2022/03/07 03:08:27;;;;;;;2.75;1.35;;;19.80;42.00;;;;;;5089904;28;20047;-58
2022/03/07 03:10:53;;;;;;;2.53;1.23;;;19.80;42.10;;;;;;5089527;28;20438;-58
2022/03/07 03:13:20;;;;;;;2.78;1.50;;;19.80;42.00;;;;;;5089891;28;20504;-58
2022/03/07 03:15:46;;;;;;;2.67;1.40;;;19.80;42.10;;;;;;5089105;28;20044;-58
2022/03/07 03:18:12;;;;;;;3.15;1.80;;;19.80;42.00;;;;;;5089230;28;20058;-58
2022/03/07 03:20:37;;;;;;;2.72;1.02;;;19.80;42.00;;;;;;5090263;28;20098;-58
2022/03/07 03:23:03;;;;;;;2.45;1.40;;;19.80;41.90;;;;;;5089613;28;20044;-58
2022/03/07 03:25:28;;;;;;;2.70;1.40;;;19.80;42.00;;;;;;5089409;28;20055;-58
2022/03/07 03:27:54;;;;;;;3.05;1.42;;;19.90;42.00;;;;;;5089618;28;20055;-58
2022/03/07 03:30:19;;;;;;;3.28;1.80;;;19.80;41.90;;;;;;5088763;28;20044;-58
2022/03/07 03:32:45;;;;;;;3.45;1.60;;;19.90;42.00;;;;;;5089764;28;20076;-58
2022/03/07 03:35:10;;;;;;;2.88;1.40;;;19.90;42.00;;;;;;5089702;28;20066;-58
2022/03/07 03:37:36;;;;;;;3.33;1.48;;;19.90;41.90;;;;;;5088958;28;20499;-58
2022/03/07 03:40:04;;;;;;;2.60;1.33;;;19.80;41.90;;;;;;5089790;28;20174;-58
2022/03/07 03:42:29;;;;;;;1.95;1.25;;;19.80;41.90;;;;;;5089520;28;20052;-58
2022/03/07 03:44:55;;;;;;;1.77;0.93;;;19.90;41.90;;;;;;5088564;28;20233;-58
2022/03/07 03:47:20;;;;;;;2.88;1.10;;;19.90;41.90;;;;;;5089382;28;20047;-58
2022/03/07 03:49:46;;;;;;;2.72;1.27;;;19.90;41.80;;;;;;5088361;28;20049;-58
2022/03/07 03:52:11;;;;;;;2.10;1.35;;;19.90;41.80;;;;;;5088335;28;20051;-58
2022/03/07 03:54:37;;;;;;;3.78;1.70;;;19.90;41.70;;;;;;5089426;28;20044;-58
2022/03/07 03:57:03;;;;;;;1.63;1.05;;;19.90;41.70;;;;;;5088090;28;20044;-58
2022/03/07 03:59:28;;;;;;;2.63;1.20;;;19.90;41.70;;;;;;5088475;28;20059;-58
2022/03/07 04:01:54;;;;;;;2.45;1.20;;;19.90;41.70;;;;;;5089155;28;20434;-58
2022/03/07 04:04:19;;;;;;;2.35;1.27;;;19.90;41.70;;;;;;5087598;28;20109;-58
2022/03/07 04:06:45;;;;;;;3.15;1.45;;;19.90;41.70;;;;;;5088626;28;20040;-58
2022/03/07 04:09:16;;;;;;;2.85;1.30;;;19.90;41.70;;;;;;5088845;28;20040;-58
2022/03/07 04:11:42;;;;;;;2.67;1.20;;;19.90;41.60;;;;;;5089342;28;20041;-58
2022/03/07 04:14:07;;;;;;;3.13;1.65;;;19.90;41.60;;;;;;5087583;28;20036;-58
2022/03/07 04:16:35;;;;;;;2.33;1.13;;;19.90;41.60;;;;;;5080412;28;20126;-58
2022/03/07 04:19:01;;;;;;;1.73;0.95;;;19.90;41.60;;;;;;5075673;28;20044;-57
2022/03/07 04:21:27;;;;;;;2.75;1.20;;;19.90;41.60;;;;;;5074544;28;20049;-58
2022/03/07 04:23:53;;;;;;;4.03;1.40;;;20.00;41.70;;;;;;5075507;28;20044;-58
2022/03/07 04:26:18;;;;;;;2.05;1.00;;;20.00;41.60;;;;;;5075327;28;20087;-58
2022/03/07 04:28:44;;;;;;;2.13;1.23;;;20.00;41.60;;;;;;5074648;28;20072;-58
2022/03/07 04:31:09;;;;;;;2.22;1.33;;;20.00;42.30;;;;;;5075126;28;20040;-58
2022/03/07 04:33:35;;;;;;;3.55;1.38;;;20.00;41.60;;;;;;5074912;28;20119;-58
2022/03/07 04:36:00;;;;;;;2.45;1.20;;;20.00;41.60;;;;;;5075137;28;20565;-58
2022/03/07 04:38:26;;;;;;;1.92;1.30;;;20.00;41.60;;;;;;5074669;28;20044;-58
2022/03/07 04:40:53;;;;;;;2.38;1.17;;;20.00;41.60;;;;;;5074486;28;20045;-58
2022/03/07 04:43:18;;;;;;;2.15;1.23;;;20.00;41.60;;;;;;5074533;28;20045;-58
2022/03/07 04:45:44;;;;;;;2.47;1.10;;;20.00;41.50;;;;;;5074963;28;20105;-58
2022/03/07 04:48:09;;;;;;;1.70;1.20;;;20.00;41.50;;;;;;5074129;28;20043;-58
2022/03/07 04:50:35;;;;;;;2.40;1.27;;;20.00;41.50;;;;;;5074354;28;20040;-58
2022/03/07 04:53:00;;;;;;;2.55;1.13;;;20.00;41.50;;;;;;5073952;28;20040;-58
2022/03/07 04:55:26;;;;;;;2.58;1.15;;;20.10;41.50;;;;;;5072975;28;20080;-58
2022/03/07 04:57:52;;;;;;;3.05;1.00;;;20.00;41.50;;;;;;5074183;28;20490;-58
2022/03/07 05:00:18;;;;;;;2.33;1.02;;;20.00;41.50;;;;;;5073155;28;20054;-58
2022/03/07 05:02:44;;;;;;;3.05;1.30;;;20.10;41.50;;;;;;5062435;28;20041;-58
2022/03/07 05:05:09;;;;;;;1.42;0.80;;;20.00;41.50;;;;;;5073569;28;20064;-58
2022/03/07 05:07:35;;;;;;;2.08;1.02;;;20.10;41.50;;;;;;5073963;28;20079;-58
2022/03/07 05:10:00;;;;;;;3.20;1.40;;;20.10;41.40;;;;;;5073291;28;20052;-58
2022/03/07 05:12:26;;;;;;;2.45;1.17;;;20.10;41.50;;;;;;5072788;28;20044;-58
2022/03/07 05:14:51;;;;;;;1.80;0.98;;;20.10;41.50;;;;;;5074255;28;20055;-59
2022/03/07 05:17:17;;;;;;;1.92;1.00;;;20.10;41.50;;;;;;5073289;28;20044;-58
2022/03/07 05:19:45;;;;;;;2.15;1.13;;;20.10;41.50;;;;;;5073285;28;20052;-58
2022/03/07 05:22:11;;;;;;;1.98;1.02;;;20.10;41.50;;;;;;5074250;28;20127;-58
2022/03/07 05:24:36;;;;;;;2.40;1.10;;;20.10;41.40;;;;;;5073480;28;20144;-58
2022/03/07 05:27:02;;;;;;;2.35;1.08;;;20.10;41.40;;;;;;5073852;28;20036;-58
2022/03/07 05:29:27;;;;;;;1.80;1.05;;;20.10;41.50;;;;;;5073574;28;20456;-58
2022/03/07 05:31:53;;;;;;;1.83;0.85;;;20.10;41.40;;;;;;5071974;28;20055;-58
2022/03/07 05:34:18;;;;;;;2.30;1.10;;;20.10;41.40;;;;;;5073931;28;20488;-58
2022/03/07 05:36:44;;;;;;;1.85;0.88;;;20.10;41.30;;;;;;5074277;28;20048;-58
2022/03/07 05:39:10;;;;;;;2.05;1.10;;;20.10;41.30;;;;;;5072994;28;20132;-58
2022/03/07 05:41:37;;;;;;;2.38;0.98;;;20.10;41.30;;;;;;5073965;28;20040;-58
2022/03/07 05:44:03;;;;;;;2.28;0.90;;;20.10;41.30;;;;;;5073078;28;20044;-58
2022/03/07 05:46:28;;;;;;;2.50;1.20;;;20.10;41.30;;;;;;5073439;28;20511;-58
2022/03/07 05:48:54;;;;;;;1.88;0.90;;;20.10;41.30;;;;;;5073876;28;20075;-58
2022/03/07 05:51:23;;;;;;;2.28;0.95;;;20.10;41.30;;;;;;5072786;28;20077;-58
2022/03/07 05:53:49;;;;;;;1.77;1.00;;;20.10;41.30;;;;;;5073704;28;20041;-58
2022/03/07 05:56:15;;;;;;;2.20;0.80;;;20.10;41.30;;;;;;5073229;28;20171;-58
2022/03/07 05:58:40;;;;;;;1.67;0.90;;;20.10;41.30;;;;;;5072734;28;20131;-58
2022/03/07 06:01:06;;;;;;;2.10;1.15;;;20.10;41.30;;;;;;5073249;28;20058;-58
2022/03/07 06:03:31;;;;;;;3.22;1.02;;;20.20;41.30;;;;;;5073374;28;20411;-58
2022/03/07 06:05:57;;;;;;;1.73;0.80;;;20.10;41.20;;;;;;5072387;28;20064;-58
2022/03/07 06:08:22;;;;;;;1.67;0.85;;;20.10;41.20;;;;;;5073082;28;20121;-58
2022/03/07 06:10:48;;;;;;;3.05;1.00;;;20.20;41.30;;;;;;5073151;28;20120;-58
2022/03/07 06:13:14;;;;;;;2.38;1.20;;;20.10;41.20;;;;;;5072354;28;20059;-58
2022/03/07 06:15:43;;;;;;;1.83;0.90;;;20.20;41.20;;;;;;5073409;28;20040;-58
2022/03/07 06:18:09;;;;;;;1.48;0.90;;;20.20;41.20;;;;;;5073155;28;20040;-58
2022/03/07 06:20:34;;;;;;;2.60;0.90;;;20.20;41.90;;;;;;5072193;28;20392;-58
2022/03/07 06:23:00;;;;;;;1.80;0.90;;;20.20;41.20;;;;;;5073038;28;20443;-58
2022/03/07 06:25:27;;;;;;;3.00;1.05;;;20.20;41.20;;;;;;5072598;28;20079;-58
2022/03/07 06:27:53;;;;;;;1.60;0.98;;;20.20;41.10;;;;;;5072305;28;20140;-58
2022/03/07 06:30:18;;;;;;;3.80;1.10;;;20.20;41.00;;;;;;5071443;28;20484;-58
2022/03/07 06:32:44;;;;;;;2.15;1.00;;;20.20;41.80;;;;;;5073290;28;20052;-58
2022/03/07 06:35:09;;;;;;;3.15;1.00;;;20.20;41.10;;;;;;5072200;28;20048;-58
2022/03/07 06:37:36;;;;;;;1.77;0.90;;;20.20;41.10;;;;;;5073418;28;20040;-58
2022/03/07 06:40:01;;;;;;;1.73;0.90;;;20.30;41.30;;;;;;5071041;28;20083;-58
2022/03/07 06:42:27;;;;;;;1.65;1.00;;;20.30;41.30;;;;;;5072151;28;20072;-59
2022/03/07 06:44:52;;;;;;;2.03;0.90;;;20.30;41.30;;;;;;5072722;28;20044;-58
2022/03/07 06:47:18;;;;;;;2.40;1.02;;;20.20;41.30;;;;;;5071710;28;20099;-58
2022/03/07 06:49:45;;;;;;;2.35;1.10;;;20.20;41.40;;;;;;5072963;28;20048;-59
2022/03/07 06:52:11;;;;;;;1.50;0.95;;;20.20;41.40;;;;;;5072610;28;20041;-58
2022/03/07 06:54:36;;;;;;;2.33;1.00;;;20.30;41.60;;;;;;5071734;28;20048;-58
2022/03/07 06:57:03;;;;;;;1.77;0.80;;;20.20;41.60;;;;;;5072871;28;20048;-58
2022/03/07 06:59:29;;;;;;;2.45;1.05;;;20.30;41.70;;;;;;5072720;28;20115;-58
2022/03/07 07:01:54;;;;;;;2.55;0.90;;;20.30;41.70;;;;;;5071910;28;20052;-58
2022/03/07 07:04:20;;;;;;;3.58;0.80;;;20.30;41.90;;;;;;5072328;28;20136;-58
2022/03/07 07:06:46;;;;;;;2.22;0.93;;;20.30;42.00;;;;;;5072686;28;20048;-58
2022/03/07 07:09:11;;;;;;;1.58;0.80;;;20.30;42.10;;;;;;5071623;28;20051;-59
2022/03/07 07:11:37;;;;;;;2.75;0.80;;;20.30;42.20;;;;;;5072728;28;20119;-58
2022/03/07 07:14:03;;;;;;;1.75;0.80;;;20.30;42.30;;;;;;5072812;28;20047;-57
2022/03/07 07:16:29;;;;;;;1.45;0.77;;;20.30;42.40;;;;;;5072078;28;20094;-57
2022/03/07 07:18:54;;;;;;;4.55;1.02;;;20.30;42.50;;;;;;5072735;28;20044;-57
2022/03/07 07:21:20;;;;;;;4.15;1.05;;;20.40;42.60;;;;;;5072337;28;20041;-58
2022/03/07 07:23:46;;;;;;;2.13;0.93;;;20.40;42.70;;;;;;5071451;28;20136;-57
2022/03/07 07:26:11;;;;;;;2.80;0.80;;;20.40;42.80;;;;;;5071726;28;20179;-57
2022/03/07 07:28:37;;;;;;;1.85;0.88;;;20.40;42.80;;;;;;5072082;28;20036;-57
2022/03/07 07:31:02;;;;;;;2.15;1.00;;;20.40;42.90;;;;;;5071574;28;20045;-57
2022/03/07 07:33:28;;;;;;;1.63;0.80;;;20.40;43.00;;;;;;5072239;28;20037;-58
2022/03/07 07:35:54;;;;;;;1.67;0.80;;;20.50;43.10;;;;;;5072154;28;20090;-59
2022/03/07 07:38:21;;;;;;;2.22;0.90;;;20.50;43.10;;;;;;5070820;28;20646;-59
2022/03/07 07:40:48;;;;;;;3.40;0.85;;;20.50;43.80;;;;;;5072564;28;20110;-58
2022/03/07 07:43:13;;;;;;;1.10;0.75;;;20.50;43.10;;;;;;5072491;28;20045;-58
2022/03/07 07:45:39;;;;;;;1.90;0.80;;;20.50;43.00;;;;;;5070757;28;20047;-57
2022/03/07 07:48:04;;;;;;;3.28;0.93;;;20.60;43.10;;;;;;5071458;28;20044;-58
2022/03/07 07:50:30;;;;;;;2.42;0.90;;;20.60;43.20;;;;;;5070813;28;20052;-59
2022/03/07 07:52:56;;;;;;;3.33;0.90;;;20.60;43.20;;;;;;5075301;28;20043;-60
2022/03/07 07:55:22;;;;;;;2.00;0.80;;;20.60;43.10;;;;;;5075539;28;20097;-59
2022/03/07 07:57:48;;;;;;;1.63;0.80;;;20.60;43.10;;;;;;5075085;28;20039;-59
2022/03/07 08:00:19;;;;;;;2.65;0.80;;;20.60;43.00;;;;;;5075517;28;20044;-58
2022/03/07 08:02:46;;;;;;;1.77;0.90;;;20.70;43.10;;;;;;5075825;28;20083;-58
2022/03/07 08:05:12;;;;;;;2.13;0.93;;;20.70;43.10;;;;;;5072880;28;20064;-58
2022/03/07 08:07:39;;;;;;;2.83;0.82;;;20.70;43.20;;;;;;5075514;28;20044;-58
2022/03/07 08:10:05;;;;;;;4.50;1.08;;;20.70;43.20;;;;;;5074904;28;20048;-57
2022/03/07 08:12:30;;;;;;;2.88;0.60;;;20.70;43.30;;;;;;5074914;28;20040;-58
2022/03/07 08:14:56;;;;;;;1.65;0.80;;;20.80;43.30;;;;;;5075558;28;20090;-57
2022/03/07 08:17:22;;;;;;;1.58;0.90;;;20.80;43.30;;;;;;5073749;28;20052;-58
2022/03/07 08:19:47;;;;;;;1.38;0.80;;;20.80;43.40;;;;;;5074847;28;20044;-58
2022/03/07 08:22:13;;;;;;;1.40;0.80;;;20.80;43.40;;;;;;5075131;28;20063;-58
2022/03/07 08:24:38;;;;;;;2.67;1.20;;;20.90;43.50;;;;;;5075328;28;20045;-58
2022/03/07 08:27:04;;;;;;;2.35;0.80;;;20.90;43.50;;;;;;5073185;28;20040;-58
2022/03/07 08:29:30;;;;;;;1.48;0.75;;;20.90;43.50;;;;;;5074858;28;20072;-58
2022/03/07 08:31:55;;;;;;;2.30;1.00;;;20.90;43.50;;;;;;5074679;28;20079;-58
2022/03/07 08:34:21;;;;;;;2.35;0.80;;;20.90;43.50;;;;;;5073859;28;20182;-59
2022/03/07 08:36:46;;;;;;;2.83;0.70;;;20.90;43.50;;;;;;5074281;28;20466;-59
2022/03/07 08:39:12;;;;;;;1.75;0.80;;;21.00;43.60;;;;;;5074412;28;20538;-59
2022/03/07 08:41:37;;;;;;;1.38;0.77;;;21.00;43.50;;;;;;5074372;28;20141;-59
2022/03/07 08:44:03;;;;;;;3.80;0.70;;;21.00;43.50;;;;;;5074796;28;20506;-59
2022/03/07 08:46:29;;;;;;;3.08;0.80;;;21.00;43.50;;;;;;5074689;28;20514;-59
2022/03/07 08:48:54;;;;;;;2.88;0.80;;;21.00;43.30;;;;;;5074161;28;20508;-59
2022/03/07 08:51:20;;;;;;;2.30;0.85;;;21.10;43.30;;;;;;5074378;28;20101;-61
2022/03/07 08:53:45;;;;;;;4.18;1.08;;;21.10;43.30;;;;;;5074987;28;20049;-59
2022/03/07 08:56:11;;;;;;;2.65;0.80;;;21.10;43.30;;;;;;5073971;28;20036;-59
2022/03/07 08:58:37;;;;;;;3.28;0.70;;;21.10;43.40;;;;;;5074969;28;20072;-58
2022/03/07 09:01:03;;;;;;;2.90;0.80;;;21.10;43.50;;;;;;5074167;28;20068;-59
2022/03/07 09:03:28;;;;;;;2.40;0.82;;;21.10;43.50;;;;;;5074126;28;20032;-58
2022/03/07 09:05:54;;;;;;;4.40;0.85;;;21.10;43.30;;;;;;5074147;28;20072;-58
2022/03/07 09:08:19;;;;;;;2.13;0.95;;;21.10;44.00;;;;;;5073487;28;20040;-59
2022/03/07 09:10:45;;;;;;;2.28;0.68;;;21.10;43.30;;;;;;5074400;28;20498;-59
2022/03/07 09:13:10;;;;;;;1.92;0.60;;;21.10;43.40;;;;;;5074453;28;20575;-59
2022/03/07 09:15:36;;;;;;;3.33;0.77;;;21.10;43.40;;;;;;5073863;28;20049;-58
2022/03/07 09:18:02;;;;;;;2.58;0.60;;;21.10;43.50;;;;;;5074408;28;20124;-59
2022/03/07 09:20:27;;;;;;;2.33;0.80;;;21.10;43.60;;;;;;5074189;28;20037;-58
2022/03/07 09:22:53;;;;;;;1.92;0.82;;;21.10;43.60;;;;;;5073774;28;20044;-58
2022/03/07 09:25:19;;;;;;;1.10;0.60;;;21.10;43.70;;;;;;5073962;28;20048;-58
2022/03/07 09:27:44;;;;;;;3.22;0.70;;;21.10;43.60;;;;;;5074219;28;20124;-58
2022/03/07 09:30:10;;;;;;;2.28;0.60;;;21.10;43.70;;;;;;5073330;28;20127;-58
2022/03/07 09:32:36;;;;;;;3.15;0.90;;;21.10;43.80;;;;;;5073892;28;20504;-58
2022/03/07 09:35:02;;;;;;;3.88;0.88;;;21.10;43.70;;;;;;5074234;28;20127;-59
2022/03/07 09:37:28;;;;;;;3.20;0.70;;;21.10;43.80;;;;;;5073285;28;20033;-59
2022/03/07 09:39:53;;;;;;;4.00;0.80;;;21.10;43.80;;;;;;5073935;28;20117;-59
2022/03/07 09:42:19;;;;;;;2.42;0.60;;;21.10;43.80;;;;;;5073801;28;20052;-59
2022/03/07 09:44:44;;;;;;;12.02;1.00;;;21.20;43.80;;;;;;5073168;28;20045;-59
2022/03/07 09:47:10;;;;;;;2.03;0.60;;;21.10;43.80;;;;;;5073529;28;20048;-59
2022/03/07 09:49:35;;;;;;;2.22;0.80;;;21.10;43.80;;;;;;5073843;28;20040;-59
2022/03/07 09:52:01;;;;;;;3.80;0.70;;;21.10;43.80;;;;;;5073166;28;20044;-59
2022/03/07 09:54:27;;;;;;;1.08;0.60;;;21.10;43.80;;;;;;5083833;28;20479;-59
2022/03/07 09:56:52;;;;;;;1.23;0.52;;;21.10;43.80;;;;;;5094070;28;20051;-59
2022/03/07 09:59:19;;;;;;;3.25;0.68;;;21.10;43.70;;;;;;5091654;28;20075;-59
2022/03/07 10:01:44;;;;;;;1.70;0.52;;;21.10;43.80;;;;;;5093851;28;20036;-59
2022/03/07 10:04:12;;;;;;;3.05;0.55;;;21.10;43.80;;;;;;5092694;28;20395;-59
2022/03/07 10:06:38;;;;;;;3.60;0.60;;;21.10;43.80;;;;;;5094012;28;20143;-59
2022/03/07 10:09:04;;;;;;;3.47;0.73;;;21.10;43.80;;;;;;5093541;28;20119;-60
2022/03/07 10:11:30;;;;;;;2.75;0.50;;;21.10;43.80;;;;;;5093180;28;20139;-59
2022/03/07 10:13:58;;;;;;;1.90;0.63;;;21.10;43.70;;;;;;5093067;28;20067;-59
2022/03/07 10:16:34;;;;;;;3.70;0.60;;;21.10;43.80;;;;;;5093203;28;20040;-59
2022/03/07 10:18:59;;;;;;;2.35;0.70;;;21.00;43.70;;;;;;5075838;28;20456;-59
2022/03/07 10:21:26;;;;;;;2.10;0.80;;;21.00;43.60;;;;;;5093472;28;20518;-59
2022/03/07 10:23:55;;;;;;;1.45;0.60;;;21.00;43.60;;;;;;5093487;28;20079;-59
2022/03/07 10:26:21;;;;;;;1.08;0.50;;;21.10;43.70;;;;;;5092394;28;20044;-59
2022/03/07 10:28:57;;;;;;;3.15;0.50;;;21.00;43.60;;;;;;5093248;28;20127;-59
2022/03/07 10:31:23;;;;;;;1.33;0.68;;;21.00;43.60;;;;;;5093208;28;20121;-59
2022/03/07 10:34:08;;;;;;;0.95;0.57;;;21.00;43.60;;;;;;5092488;28;20047;-59
2022/03/07 10:36:35;;;;;;;2.15;0.50;;;21.00;43.60;;;;;;5093162;28;20519;-59
2022/03/07 10:39:02;;;;;;;3.38;0.90;;;21.00;43.70;;;;;;5093309;28;20055;-59
2022/03/07 10:41:39;;;;;;;3.20;0.60;;;21.00;43.60;;;;;;5092444;28;20132;-59
2022/03/07 10:44:06;;;;;;;1.48;0.60;;;20.90;43.60;;;;;;5092671;28;20562;-60
2022/03/07 10:46:31;;;;;;;2.85;0.80;;;20.90;43.70;;;;;;5092628;28;20086;-58
2022/03/07 10:48:57;;;;;;;1.30;0.50;;;20.90;43.60;;;;;;5093157;28;20487;-59
2022/03/07 10:51:25;;;;;;;2.80;0.50;;;20.90;43.70;;;;;;5093025;28;20052;-58
2022/03/07 10:53:51;;;;;;;2.50;0.50;;;20.90;43.60;;;;;;5092408;28;20047;-58
2022/03/07 10:56:17;;;;;;;1.52;0.68;;;20.90;43.70;;;;;;5092552;28;20044;-58
2022/03/07 10:58:47;;;;;;;0.88;0.50;;;20.90;43.70;;;;;;5091596;28;20502;-59
2022/03/07 11:01:12;;;;;;;1.38;0.60;;;20.90;43.70;;;;;;5090824;28;20142;-59
2022/03/07 11:03:38;;;;;;;4.30;0.75;;;20.80;43.50;;;;;;5093472;28;20455;-59
2022/03/07 11:06:03;;;;;;;5.65;0.93;;;20.80;43.50;;;;;;5092803;28;20052;-59
2022/03/07 11:08:29;;;;;;;2.97;0.63;;;20.80;43.40;;;;;;5091986;28;20050;-59
2022/03/07 11:10:56;;;;;;;1.30;0.50;;;20.80;43.40;;;;;;5092974;28;20090;-59
2022/03/07 11:13:29;;;;;;;1.02;0.40;;;20.80;43.50;;;;;;5092693;28;20044;-59
2022/03/07 11:15:56;;;;;;;2.10;0.70;;;20.70;43.40;;;;;;5092297;28;20101;-59
2022/03/07 11:18:22;;;;;;;2.10;0.70;;;20.70;44.10;;;;;;5092584;28;20105;-59
2022/03/07 11:20:48;;;;;;;1.50;0.55;;;20.70;43.40;;;;;;5092751;28;20036;-59
2022/03/07 11:23:18;;;;;;;2.17;0.52;;;20.70;43.50;;;;;;5091383;28;20052;-59
2022/03/07 11:25:44;;;;;;;3.22;0.52;;;20.70;43.50;;;;;;5093238;28;20040;-59
2022/03/07 11:28:10;;;;;;;1.85;0.50;;;20.70;43.50;;;;;;5095532;28;20498;-58
2022/03/07 11:30:39;;;;;;;1.83;0.50;;;20.70;43.50;;;;;;5096179;28;20048;-58
2022/03/07 11:33:15;;;;;;;1.27;0.50;;;20.70;43.50;;;;;;5096497;28;20078;-58
2022/03/07 11:35:50;;;;;;;0.93;0.40;;;20.70;43.50;;;;;;5096213;28;20055;-58
2022/03/07 11:38:23;;;;;;;1.65;0.50;;;20.70;43.50;;;;;;5096384;28;20127;-58
2022/03/07 11:41:02;;;;;;;3.38;0.90;;;20.70;43.50;;;;;;5096730;28;20555;-58
2022/03/07 11:43:30;;;;;;;2.38;0.70;;;20.70;44.20;;;;;;5095679;28;20044;-59
2022/03/07 11:45:56;;;;;;;;;;;20.70;43.50;;;;;;5097065;28;20052;-58
2022/03/07 11:48:21;;;;;;;4.28;1.15;;;20.70;43.50;;;;;;5095947;28;19920;-58
2022/03/07 11:50:47;;;;;;;2.80;1.10;;;20.70;43.60;;;;;;5095824;28;20044;-59
2022/03/07 11:53:14;;;;;;;5.03;0.98;;;20.70;43.60;;;;;;5095993;28;20047;-60
2022/03/07 11:55:44;;;;;;;4.18;0.90;;;20.70;43.60;;;;;;5096402;28;20043;-60
2022/03/07 11:58:09;;;;;;;2.78;0.80;;;20.70;43.60;;;;;;5095098;28;20420;-60
2022/03/07 12:00:36;;;;;;;5.45;1.05;;;20.70;43.60;;;;;;5096324;28;20518;-59
2022/03/07 12:03:13;;;;;;;3.90;1.02;;;20.80;43.80;;;;;;5096020;28;20040;-59
2022/03/07 12:05:38;;;;;;;5.22;1.20;;;20.80;43.80;;;;;;5095323;28;20052;-60
2022/03/07 12:08:12;;;;;;;5.07;1.30;;;20.80;43.80;;;;;;5095916;28;20400;-60
2022/03/07 12:10:38;;;;;;;2.15;0.75;;;20.80;43.80;;;;;;5096207;28;20048;-58
2022/03/07 12:13:05;;;;;;;5.70;1.00;;;20.80;43.80;;;;;;5095145;28;20127;-59
2022/03/07 12:15:31;;;;;;;2.67;0.80;;;20.80;43.80;;;;;;5090459;28;20048;-58
2022/03/07 12:17:57;;;;;;;4.35;0.85;;;20.90;43.90;;;;;;5036895;28;20098;-58
2022/03/07 12:20:22;;;;;;;4.68;1.23;;;20.90;44.00;;;;;;5055232;28;20045;-58
2022/03/07 12:22:48;;;;;;;2.75;0.80;;;20.80;43.90;;;;;;5055646;28;20497;-58
2022/03/07 12:25:13;;;;;;;3.97;0.90;;;20.90;44.00;;;;;;5053260;28;20041;-59
2022/03/07 12:27:39;;;;;;;2.83;0.60;;;20.90;44.00;;;;;;5055442;28;20049;-58
2022/03/07 12:30:08;;;;;;;3.10;1.00;;;20.90;43.90;;;;;;5054822;28;20519;-58
2022/03/07 12:32:35;;;;;;;2.97;0.80;;;20.90;43.90;;;;;;5054595;28;20049;-58
2022/03/07 12:35:01;;;;;;;2.20;0.50;;;20.90;43.90;;;;;;5055522;28;20044;-59
2022/03/07 12:37:28;;;;;;;3.83;0.63;;;21.00;44.00;;;;;;5054655;28;20086;-59
2022/03/07 12:39:54;;;;;;;3.45;0.85;;;21.00;44.00;;;;;;5054423;28;20045;-59
2022/03/07 12:42:25;;;;;;;2.88;1.05;;;21.00;43.80;;;;;;5055006;28;20045;-58